Time;durP1;ratioP1;P1;durP2;ratioP2;P2;SDS_P1;SDS_P2;PMS_P1;PMS_P2;Temp;Humidity;BMP_temperature;BMP_pressure;BME280_temperature;BME280_humidity;BME280_pressure;Samples;Min_cycle;Max_cycle;Signal;HPM_P1;HPM_P2
2022/08/31 00:04:01;;;;;;;3.00;1.73;;;;;;;;;;5044234;28;20060;-57
2022/08/31 00:06:48;;;;;;;3.53;1.77;;;;;;;;;;5047050;28;20041;-57
2022/08/31 00:09:33;;;;;;;5.53;1.80;;;;;;;;;;5034709;28;20038;-57
2022/08/31 00:12:18;;;;;;;4.00;1.85;;;;;;;;;;5040263;28;20036;-56
2022/08/31 00:15:03;;;;;;;3.40;1.50;;;;;;;;;;5047538;28;20152;-57
2022/08/31 00:17:48;;;;;;;3.40;1.77;;;;;;;;;;5037256;28;20141;-57
2022/08/31 00:20:33;;;;;;;4.70;1.60;;;;;;;;;;5043742;28;20052;-57
2022/08/31 00:23:17;;;;;;;2.55;1.55;;;;;;;;;;5037691;28;20072;-57
2022/08/31 00:26:02;;;;;;;4.15;1.60;;;;;;;;;;5037892;28;20045;-58
2022/08/31 00:28:47;;;;;;;2.58;1.60;;;;;;;;;;5043447;28;20041;-58
2022/08/31 00:31:31;;;;;;;3.20;1.50;;;;;;;;;;5038269;28;20077;-58
2022/08/31 00:34:16;;;;;;;5.20;1.80;;;;;;;;;;5033187;28;20067;-57
2022/08/31 00:37:01;;;;;;;3.17;1.80;;;;;;;;;;5043432;28;20037;-58
2022/08/31 00:39:46;;;;;;;5.40;1.70;;;;;;;;;;5067999;28;20061;-58
2022/08/31 00:42:30;;;;;;;2.92;1.33;;;;;;;;;;5037223;28;20053;-56
2022/08/31 00:45:15;;;;;;;3.03;1.52;;;;;;;;;;5031964;28;20081;-54
2022/08/31 00:47:59;;;;;;;2.92;1.60;;;;;;;;;;5030935;28;20045;-57
2022/08/31 00:50:44;;;;;;;4.18;1.67;;;;;;;;;;5056258;28;20045;-57
2022/08/31 00:53:29;;;;;;;4.93;1.83;;;;;;;;;;5034497;28;20053;-56
2022/08/31 00:56:14;;;;;;;3.80;1.52;;;;;;;;;;5042841;28;20068;-58
2022/08/31 00:58:59;;;;;;;2.22;1.40;;;;;;;;;;5045540;28;20056;-56
2022/08/31 01:01:43;;;;;;;3.83;1.88;;;;;;;;;;5036849;28;20067;-57
2022/08/31 01:04:28;;;;;;;6.88;2.25;;;;;;;;;;5045341;28;20119;-57
2022/08/31 01:07:13;;;;;;;3.40;1.60;;;;;;;;;;5047993;28;20135;-56
2022/08/31 01:09:58;;;;;;;4.50;1.98;;;;;;;;;;5049492;28;20045;-56
2022/08/31 01:12:44;;;;;;;6.72;2.03;;;;;;;;;;5049886;28;20064;-56
2022/08/31 01:15:29;;;;;;;2.78;1.90;;;;;;;;;;5040298;28;20041;-55
2022/08/31 01:18:15;;;;;;;3.30;1.83;;;;;;;;;;5076870;28;20044;-56
2022/08/31 01:20:59;;;;;;;3.20;1.90;;;;;;;;;;5074973;28;20041;-58
2022/08/31 01:23:44;;;;;;;4.07;1.58;;;;;;;;;;5041858;28;20119;-56
2022/08/31 01:26:29;;;;;;;4.82;2.05;;;;;;;;;;5047324;28;20041;-58
2022/08/31 01:29:15;;;;;;;2.92;1.92;;;;;;;;;;5045493;28;20109;-57
2022/08/31 01:32:00;;;;;;;5.18;2.10;;;;;;;;;;5053893;28;20071;-57
2022/08/31 01:34:45;;;;;;;4.03;1.92;;;;;;;;;;5042693;28;20090;-56
2022/08/31 01:37:30;;;;;;;4.25;2.15;;;;;;;;;;5055199;28;20236;-56
2022/08/31 01:40:14;;;;;;;4.00;2.42;;;;;;;;;;5049673;28;20037;-57
2022/08/31 01:43:01;;;;;;;5.38;2.40;;;;;;;;;;5037304;28;20056;-57
2022/08/31 01:45:46;;;;;;;5.72;1.88;;;;;;;;;;5061270;28;20045;-58
2022/08/31 01:48:30;;;;;;;4.40;1.92;;;;;;;;;;5041302;28;20045;-57
2022/08/31 01:51:16;;;;;;;4.47;2.28;;;;;;;;;;5044866;28;20041;-56
2022/08/31 01:54:01;;;;;;;3.33;2.33;;;;;;;;;;5048841;28;20544;-57
2022/08/31 01:56:46;;;;;;;4.75;2.25;;;;;;;;;;5049672;28;20490;-57
2022/08/31 01:59:36;;;;;;;4.68;2.35;;;;;;;;;;5048303;28;20044;-55
2022/08/31 02:02:46;;;;;;;5.00;2.40;;;;;;;;;;5026460;28;20076;-56
2022/08/31 02:05:31;;;;;;;3.15;1.80;;;;;;;;;;5010566;28;20339;-56
2022/08/31 02:08:17;;;;;;;4.75;2.28;;;;;;;;;;5006907;28;20049;-55
2022/08/31 02:11:02;;;;;;;3.78;2.35;;;;;;;;;;5014753;28;20041;-56
2022/08/31 02:13:46;;;;;;;4.72;2.97;;;;;;;;;;5022379;28;20149;-57
2022/08/31 02:16:32;;;;;;;3.60;1.98;;;;;;;;;;5027579;28;20116;-57
2022/08/31 02:19:17;;;;;;;4.38;2.85;;;;;;;;;;5021666;28;20532;-56
2022/08/31 02:22:02;;;;;;;5.28;2.58;;;;;;;;;;4991339;28;20041;-56
2022/08/31 02:24:47;;;;;;;4.80;2.35;;;;;;;;;;5007769;28;20043;-56
2022/08/31 02:27:31;;;;;;;4.40;2.15;;;;;;;;;;5016982;28;20219;-57
2022/08/31 02:30:17;;;;;;;4.00;2.40;;;;;;;;;;4995554;28;20551;-56
2022/08/31 02:33:02;;;;;;;2.95;1.88;;;;;;;;;;5025361;28;20052;-56
2022/08/31 02:35:47;;;;;;;4.40;2.70;;;;;;;;;;5022600;28;20391;-57
2022/08/31 02:38:32;;;;;;;6.85;2.80;;;;;;;;;;5017934;28;20480;-55
2022/08/31 02:41:17;;;;;;;4.47;2.70;;;;;;;;;;5046331;28;20338;-55
2022/08/31 02:44:02;;;;;;;3.13;2.17;;;;;;;;;;5049725;28;20462;-54
2022/08/31 02:46:47;;;;;;;4.65;2.38;;;;;;;;;;5043578;28;20069;-55
2022/08/31 02:49:51;;;;;;;5.07;2.28;;;;;;;;;;5046841;28;20772;-55
2022/08/31 02:52:36;;;;;;;4.43;2.30;;;;;;;;;;5043724;28;20675;-56
2022/08/31 02:55:21;;;;;;;4.30;2.25;;;;;;;;;;5043916;28;20125;-54
2022/08/31 02:58:07;;;;;;;4.20;2.28;;;;;;;;;;5061057;28;20490;-55
2022/08/31 03:00:51;;;;;;;4.45;2.38;;;;;;;;;;5024606;28;20032;-62
2022/08/31 03:03:37;;;;;;;5.22;2.58;;;;;;;;;;5045338;28;20037;-56
2022/08/31 03:06:22;;;;;;;5.88;2.13;;;;;;;;;;5041496;28;20035;-55
2022/08/31 03:09:08;;;;;;;4.18;2.55;;;;;;;;;;5040525;28;20068;-57
2022/08/31 03:11:52;;;;;;;4.28;2.40;;;;;;;;;;5034889;28;20048;-56
2022/08/31 03:14:38;;;;;;;3.55;2.28;;;;;;;;;;5041317;28;20319;-56
2022/08/31 03:17:22;;;;;;;4.40;2.70;;;;;;;;;;5042683;28;20038;-57
2022/08/31 03:20:08;;;;;;;3.47;2.47;;;;;;;;;;5043564;28;20488;-55
2022/08/31 03:22:53;;;;;;;6.70;2.58;;;;;;;;;;5040764;28;20029;-57
2022/08/31 03:25:38;;;;;;;4.38;2.13;;;;;;;;;;5040777;28;20481;-57
2022/08/31 03:28:22;;;;;;;2.88;2.05;;;;;;;;;;5037367;28;20037;-57
2022/08/31 03:31:27;;;;;;;3.47;1.90;;;;;;;;;;5044653;28;20049;-56
2022/08/31 03:34:12;;;;;;;5.57;2.47;;;;;;;;;;5055988;28;20037;-56
2022/08/31 03:36:57;;;;;;;4.00;2.67;;;;;;;;;;5025879;28;20094;-57
2022/08/31 03:39:41;;;;;;;4.63;2.25;;;;;;;;;;5041500;28;20132;-57
2022/08/31 03:42:27;;;;;;;4.50;2.13;;;;;;;;;;5041771;28;20044;-56
2022/08/31 03:45:11;;;;;;;3.90;2.20;;;;;;;;;;5041653;28;20515;-56
2022/08/31 03:47:58;;;;;;;3.75;2.00;;;;;;;;;;5041704;28;20132;-56
2022/08/31 03:50:44;;;;;;;4.47;2.13;;;;;;;;;;5030323;28;20493;-57
2022/08/31 03:53:36;;;;;;;2.70;2.10;;;;;;;;;;5055875;28;20033;-56
2022/08/31 03:56:22;;;;;;;4.30;2.58;;;;;;;;;;5041951;28;20033;-57
2022/08/31 03:59:08;;;;;;;5.63;2.35;;;;;;;;;;5043057;28;20037;-58
2022/08/31 04:02:20;;;;;;;5.30;2.17;;;;;;;;;;5045103;28;20439;-57
2022/08/31 04:05:23;;;;;;;3.20;1.60;;;;;;;;;;5050002;28;20131;-57
2022/08/31 04:08:40;;;;;;;2.72;1.80;;;;;;;;;;5041552;28;20103;-57
2022/08/31 04:11:44;;;;;;;3.63;1.75;;;;;;;;;;5047548;28;20144;-57
2022/08/31 04:14:47;;;;;;;2.97;1.73;;;;;;;;;;5045939;28;20025;-57
2022/08/31 04:18:05;;;;;;;3.17;1.98;;;;;;;;;;5007913;28;20140;-59
2022/08/31 04:21:11;;;;;;;3.40;1.70;;;;;;;;;;5022430;28;20045;-56
2022/08/31 04:23:56;;;;;;;3.10;1.77;;;;;;;;;;5006400;28;20091;-58
2022/08/31 04:26:41;;;;;;;3.70;1.77;;;;;;;;;;5000247;28;20058;-58
2022/08/31 04:29:35;;;;;;;2.92;1.90;;;;;;;;;;4987059;28;20057;-58
2022/08/31 04:32:19;;;;;;;4.25;1.55;;;;;;;;;;5025440;28;20127;-57
2022/08/31 04:35:05;;;;;;;3.40;1.77;;;;;;;;;;5011356;28;20136;-58
2022/08/31 04:37:50;;;;;;;2.97;1.50;;;;;;;;;;5009205;28;20493;-55
2022/08/31 04:40:37;;;;;;;2.55;1.65;;;;;;;;;;5006468;28;20049;-57
2022/08/31 04:43:23;;;;;;;6.20;1.85;;;;;;;;;;5026283;28;20398;-57
2022/08/31 04:46:08;;;;;;;5.45;1.83;;;;;;;;;;5010151;28;20148;-56
2022/08/31 04:48:53;;;;;;;3.92;2.08;;;;;;;;;;5006960;28;20042;-55
2022/08/31 04:51:38;;;;;;;4.80;1.90;;;;;;;;;;5007585;28;20392;-55
2022/08/31 04:54:23;;;;;;;2.88;1.80;;;;;;;;;;5039661;28;20077;-55
2022/08/31 04:57:08;;;;;;;3.53;2.45;;;;;;;;;;5052685;28;20079;-57
2022/08/31 04:59:52;;;;;;;3.13;1.83;;;;;;;;;;5038796;28;20044;-55
2022/08/31 05:03:03;;;;;;;4.75;2.30;;;;;;;;;;5048931;28;20179;-57
2022/08/31 05:05:51;;;;;;;4.22;1.67;;;;;;;;;;5063085;28;20037;-55
2022/08/31 05:08:36;;;;;;;3.25;2.03;;;;;;;;;;5046065;28;20120;-57
2022/08/31 05:11:21;;;;;;;5.38;2.08;;;;;;;;;;5046915;28;20392;-58
2022/08/31 05:14:09;;;;;;;3.08;1.70;;;;;;;;;;5044946;28;20041;-59
2022/08/31 05:16:56;;;;;;;3.92;2.17;;;;;;;;;;5032396;28;20072;-57
2022/08/31 05:19:42;;;;;;;2.53;1.80;;;;;;;;;;5057236;28;20139;-57
2022/08/31 05:22:28;;;;;;;3.30;1.85;;;;;;;;;;5034877;28;20045;-59
2022/08/31 05:25:13;;;;;;;3.78;1.80;;;;;;;;;;5049652;28;20036;-57
2022/08/31 05:27:59;;;;;;;2.75;1.80;;;;;;;;;;5051181;28;20052;-57
2022/08/31 05:30:44;;;;;;;3.97;1.88;;;;;;;;;;5038735;28;20049;-58
2022/08/31 05:33:40;;;;;;;4.18;2.25;;;;;;;;;;5060820;28;20137;-57
2022/08/31 05:36:24;;;;;;;4.25;2.10;;;;;;;;;;5048477;28;20048;-57
2022/08/31 05:39:10;;;;;;;5.00;1.67;;;;;;;;;;5045072;28;20135;-57
2022/08/31 05:41:55;;;;;;;3.85;1.90;;;;;;;;;;5030761;28;20155;-58
2022/08/31 05:44:39;;;;;;;3.80;1.98;;;;;;;;;;5043473;28;20040;-58
2022/08/31 05:47:23;;;;;;;4.70;2.53;;;;;;;;;;5036653;28;20128;-57
2022/08/31 05:50:08;;;;;;;3.83;2.05;;;;;;;;;;5022423;28;20092;-58
2022/08/31 05:52:54;;;;;;;5.10;2.80;;;;;;;;;;5048171;28;20073;-60
2022/08/31 05:55:38;;;;;;;4.28;2.33;;;;;;;;;;5056303;28;20048;-57
2022/08/31 05:58:23;;;;;;;4.60;3.03;;;;;;;;;;5039191;28;20080;-59
2022/08/31 06:01:21;;;;;;;5.35;2.83;;;;;;;;;;5041993;28;20044;-57
2022/08/31 06:04:19;;;;;;;3.97;2.42;;;;;;;;;;5042950;28;20037;-58
2022/08/31 06:07:04;;;;;;;6.53;2.70;;;;;;;;;;5039495;28;20049;-58
2022/08/31 06:09:57;;;;;;;5.97;2.80;;;;;;;;;;5044049;28;20037;-57
2022/08/31 06:12:43;;;;;;;5.60;3.00;;;;;;;;;;5070133;28;20066;-53
2022/08/31 06:15:28;;;;;;;4.65;3.08;;;;;;;;;;5048827;28;20072;-59
2022/08/31 06:18:12;;;;;;;6.45;3.20;;;;;;;;;;5051353;28;20049;-59
2022/08/31 06:21:07;;;;;;;5.40;3.10;;;;;;;;;;5045553;28;20083;-58
2022/08/31 06:23:53;;;;;;;4.60;3.08;;;;;;;;;;5038755;28;20037;-57
2022/08/31 06:26:40;;;;;;;7.90;3.17;;;;;;;;;;5068617;28;20072;-55
2022/08/31 06:29:35;;;;;;;6.35;3.75;;;;;;;;;;5048945;28;20060;-55
2022/08/31 06:32:20;;;;;;;4.80;3.05;;;;;;;;;;5049644;28;20049;-56
2022/08/31 06:35:14;;;;;;;4.82;3.20;;;;;;;;;;5043565;28;20048;-55
2022/08/31 06:38:13;;;;;;;6.45;3.40;;;;;;;;;;5035831;28;20045;-56
2022/08/31 06:40:57;;;;;;;6.88;3.72;;;;;;;;;;5048128;28;20033;-55
2022/08/31 06:44:21;;;;;;;9.45;3.20;;;;;;;;;;5043113;28;20200;-55
2022/08/31 06:47:28;;;;;;;6.47;3.17;;;;;;;;;;4989071;28;20141;-56
2022/08/31 06:50:14;;;;;;;4.60;2.90;;;;;;;;;;4970095;28;20111;-57
2022/08/31 06:52:59;;;;;;;5.57;2.78;;;;;;;;;;4987977;28;20272;-56
2022/08/31 06:56:11;;;;;;;6.28;2.97;;;;;;;;;;4984173;28;20047;-57
2022/08/31 06:59:22;;;;;;;5.28;2.75;;;;;;;;;;4987163;28;20042;-57
2022/08/31 07:02:30;;;;;;;4.57;2.88;;;;;;;;;;4976811;28;20053;-57
2022/08/31 07:05:15;;;;;;;4.22;3.20;;;;;;;;;;4988609;28;20050;-56
2022/08/31 07:08:00;;;;;;;6.13;3.10;;;;;;;;;;5002624;28;20046;-58
2022/08/31 07:10:45;;;;;;;4.65;2.50;;;;;;;;;;4975613;28;20050;-57
2022/08/31 07:13:30;;;;;;;4.40;2.63;;;;;;;;;;5002007;28;20046;-56
2022/08/31 07:16:16;;;;;;;7.63;2.95;;;;;;;;;;4989279;28;20042;-57
2022/08/31 07:19:05;;;;;;;8.65;2.97;;;;;;;;;;4989182;28;20165;-55
2022/08/31 07:21:53;;;;;;;3.92;2.72;;;;;;;;;;4981305;28;20053;-56
2022/08/31 07:24:38;;;;;;;5.20;2.50;;;;;;;;;;5041514;28;20048;-58
2022/08/31 07:27:24;;;;;;;4.40;2.45;;;;;;;;;;5031471;28;20048;-56
2022/08/31 07:30:16;;;;;;;3.78;2.60;;;;;;;;;;5042700;28;20128;-56
2022/08/31 07:33:05;;;;;;;4.75;2.60;;;;;;;;;;5043115;28;20050;-59
2022/08/31 07:35:50;;;;;;;4.35;2.60;;;;;;;;;;5030790;28;20075;-57
2022/08/31 07:42:10;;;;;;;6.47;2.83;;;;;;;;;;5047451;28;20040;-57
2022/08/31 07:44:55;;;;;;;4.22;2.72;;;;;;;;;;5047334;28;20114;-57
2022/08/31 07:47:46;;;;;;;7.03;2.60;;;;;;;;;;5071711;28;20115;-57
2022/08/31 07:50:32;;;;;;;4.20;2.38;;;;;;;;;;5048365;28;20481;-57
2022/08/31 07:53:46;;;;;;;4.40;2.42;;;;;;;;;;5051182;28;20068;-57
2022/08/31 07:56:49;;;;;;;3.65;2.40;;;;;;;;;;5026686;28;20128;-57
2022/08/31 07:59:38;;;;;;;3.95;2.33;;;;;;;;;;5021013;28;20041;-58
2022/08/31 08:02:23;;;;;;;3.42;2.28;;;;;;;;;;5048879;28;20091;-57
2022/08/31 08:05:10;;;;;;;3.97;2.30;;;;;;;;;;5047721;28;20458;-57
2022/08/31 08:08:21;;;;;;;2.28;1.83;;;;;;;;;;5010947;28;20049;-58
2022/08/31 08:11:22;;;;;;;5.03;2.40;;;;;;;;;;5005486;28;20160;-57
2022/08/31 08:14:36;;;;;;;5.47;2.42;;;;;;;;;;5024246;28;20069;-59
2022/08/31 08:17:31;;;;;;;4.03;2.10;;;;;;;;;;5022661;28;20622;-58
2022/08/31 08:20:24;;;;;;;2.92;1.90;;;;;;;;;;5029152;28;20056;-57
2022/08/31 08:23:11;;;;;;;3.92;2.15;;;;;;;;;;5027412;28;20041;-57
2022/08/31 08:26:14;;;;;;;4.90;2.20;;;;;;;;;;5027513;28;20081;-58
2022/08/31 08:29:18;;;;;;;4.60;2.17;;;;;;;;;;5027713;28;20042;-58
2022/08/31 08:32:02;;;;;;;4.38;2.35;;;;;;;;;;5030260;28;20076;-56
2022/08/31 08:34:47;;;;;;;5.10;2.28;;;;;;;;;;5030503;28;20113;-58
2022/08/31 08:37:32;;;;;;;5.38;1.90;;;;;;;;;;5026241;28;20052;-58
2022/08/31 08:40:25;;;;;;;3.60;1.98;;;;;;;;;;5040984;28;20042;-58
2022/08/31 08:43:11;;;;;;;3.08;1.70;;;;;;;;;;5016095;28;20697;-58
2022/08/31 08:45:57;;;;;;;3.63;1.70;;;;;;;;;;5039658;28;20114;-58
2022/08/31 08:48:47;;;;;;;2.85;1.60;;;;;;;;;;5045638;28;20048;-57
2022/08/31 08:51:35;;;;;;;3.97;1.70;;;;;;;;;;5049204;28;20025;-58
2022/08/31 08:54:33;;;;;;;2.53;1.90;;;;;;;;;;5050665;28;20033;-58
2022/08/31 08:57:22;;;;;;;2.75;1.60;;;;;;;;;;5057724;28;20057;-57
2022/08/31 09:00:14;;;;;;;4.60;2.10;;;;;;;;;;5049232;28;20040;-58
2022/08/31 09:03:08;;;;;;;2.88;1.90;;;;;;;;;;5019421;28;20087;-61
2022/08/31 09:06:17;;;;;;;2.53;1.80;;;;;;;;;;5050999;28;20049;-57
2022/08/31 09:09:16;;;;;;;3.65;2.00;;;;;;;;;;5062559;28;20492;-57
2022/08/31 09:12:19;;;;;;;6.35;2.70;;;;;;;;;;5046673;28;20045;-58
2022/08/31 09:15:34;;;;;;;3.00;1.88;;;;;;;;;;5055915;28;20040;-58
2022/08/31 09:18:29;;;;;;;7.13;2.25;;;;;;;;;;5044597;28;20048;-57
2022/08/31 09:21:22;;;;;;;6.65;2.15;;;;;;;;;;5049359;28;20053;-58
2022/08/31 09:24:20;;;;;;;5.10;2.22;;;;;;;;;;5033374;28;20069;-57
2022/08/31 09:27:45;;;;;;;3.03;1.98;;;;;;;;;;5044238;28;20033;-58
2022/08/31 09:30:45;;;;;;;6.90;2.55;;;;;;;;;;5036924;28;20625;-57
2022/08/31 09:33:34;;;;;;;4.13;1.92;;;;;;;;;;5045173;28;20045;-58
2022/08/31 09:36:21;;;;;;;4.40;1.98;;;;;;;;;;5039285;28;20459;-58
2022/08/31 09:39:32;;;;;;;2.28;1.58;;;;;;;;;;5042437;28;20065;-57
2022/08/31 09:42:18;;;;;;;2.90;1.50;;;;;;;;;;5031738;28;20540;-59
2022/08/31 09:45:11;;;;;;;4.20;1.73;;;;;;;;;;5044269;28;20075;-59
2022/08/31 09:48:00;;;;;;;6.20;1.70;;;;;;;;;;5047956;28;20429;-59
2022/08/31 09:50:44;;;;;;;2.30;1.40;;;;;;;;;;5046803;28;20094;-58
2022/08/31 09:56:51;;;;;;;3.60;1.67;;;;;;;;;;5046424;28;20503;-57
2022/08/31 09:59:36;;;;;;;3.75;1.38;;;;;;;;;;5039187;28;20143;-60
2022/08/31 10:02:21;;;;;;;3.95;1.67;;;;;;;;;;5044652;28;20060;-58
2022/08/31 10:05:22;;;;;;;4.22;1.50;;;;;;;;;;5033793;28;20073;-60
2022/08/31 10:08:12;;;;;;;2.13;1.40;;;;;;;;;;5049581;28;20333;-58
2022/08/31 10:11:01;;;;;;;3.22;1.92;;;;;;;;;;5048000;28;20044;-58
2022/08/31 10:13:52;;;;;;;2.55;1.60;;;;;;;;;;5037205;28;20051;-58
2022/08/31 10:16:39;;;;;;;2.10;1.48;;;;;;;;;;5044386;28;20116;-60
2022/08/31 10:19:29;;;;;;;2.58;1.73;;;;;;;;;;5074404;28;20122;-58
2022/08/31 10:22:26;;;;;;;2.50;1.90;;;;;;;;;;5036433;28;20069;-59
2022/08/31 10:25:17;;;;;;;3.45;1.60;;;;;;;;;;5051289;28;20041;-60
2022/08/31 10:28:14;;;;;;;2.40;1.40;;;;;;;;;;5032427;28;20503;-57
2022/08/31 10:31:19;;;;;;;3.08;2.00;;;;;;;;;;5039804;28;20046;-58
2022/08/31 10:37:19;;;;;;;2.83;1.42;;;;;;;;;;5034086;28;20516;-59
2022/08/31 10:40:10;;;;;;;2.47;1.65;;;;;;;;;;5044552;28;20046;-58
2022/08/31 10:43:08;;;;;;;2.67;1.48;;;;;;;;;;5042965;28;20045;-58
2022/08/31 10:45:52;;;;;;;3.05;1.05;;;;;;;;;;5047716;28;20057;-58
2022/08/31 10:48:53;;;;;;;1.65;1.40;;;;;;;;;;5042819;28;20041;-58
2022/08/31 10:51:51;;;;;;;1.88;1.30;;;;;;;;;;5049204;28;20036;-58
2022/08/31 10:54:46;;;;;;;2.10;1.25;;;;;;;;;;5047061;28;20532;-58
2022/08/31 10:57:40;;;;;;;5.20;1.55;;;;;;;;;;5050156;28;20051;-59
2022/08/31 11:00:41;;;;;;;3.55;2.28;;;;;;;;;;5046683;28;20040;-61
2022/08/31 11:03:28;;;;;;;4.13;2.22;;;;;;;;;;5041757;28;20478;-58
2022/08/31 11:06:18;;;;;;;2.47;1.70;;;;;;;;;;5047368;28;20120;-57
2022/08/31 11:09:18;;;;;;;5.05;1.70;;;;;;;;;;5046921;28;20052;-57
2022/08/31 11:12:05;;;;;;;;;;;;;;;;;;5050976;28;20045;-57
2022/08/31 11:14:50;;;;;;;3.42;1.40;;;;;;;;;;5049208;28;19920;-59
2022/08/31 11:17:41;;;;;;;4.85;1.30;;;;;;;;;;5041617;28;20037;-58
2022/08/31 11:20:49;;;;;;;2.28;1.17;;;;;;;;;;5034381;28;20124;-58
2022/08/31 11:23:33;;;;;;;2.42;1.60;;;;;;;;;;5026010;28;20124;-59
2022/08/31 11:26:33;;;;;;;2.45;1.52;;;;;;;;;;5026858;28;20042;-57
2022/08/31 11:29:32;;;;;;;2.85;1.75;;;;;;;;;;5026946;28;20049;-59
2022/08/31 11:32:22;;;;;;;2.85;1.30;;;;;;;;;;5019872;28;20447;-58
2022/08/31 11:35:09;;;;;;;3.92;1.60;;;;;;;;;;5026797;28;20806;-58
2022/08/31 11:37:57;;;;;;;2.95;1.65;;;;;;;;;;5018720;28;20360;-57
2022/08/31 11:40:57;;;;;;;2.53;1.52;;;;;;;;;;5007479;28;20080;-58
2022/08/31 11:43:44;;;;;;;3.47;1.38;;;;;;;;;;5016020;28;20509;-58
2022/08/31 11:46:42;;;;;;;4.45;1.60;;;;;;;;;;5027128;28;20433;-56
2022/08/31 11:49:34;;;;;;;2.50;1.20;;;;;;;;;;5018897;28;20568;-57
2022/08/31 11:52:27;;;;;;;3.13;1.30;;;;;;;;;;5024270;28;20431;-59
2022/08/31 11:55:19;;;;;;;1.25;0.90;;;;;;;;;;5025270;28;20099;-56
2022/08/31 11:58:07;;;;;;;1.83;1.10;;;;;;;;;;5027794;28;20049;-57
2022/08/31 12:00:57;;;;;;;2.22;1.35;;;;;;;;;;5024538;28;20061;-57
2022/08/31 12:03:44;;;;;;;2.83;1.27;;;;;;;;;;5033998;28;20041;-57
2022/08/31 12:06:36;;;;;;;2.33;1.27;;;;;;;;;;5069996;28;20037;-58
2022/08/31 12:09:40;;;;;;;3.30;1.40;;;;;;;;;;5046792;28;20071;-56
2022/08/31 12:12:43;;;;;;;7.90;1.60;;;;;;;;;;5047999;28;20037;-59
2022/08/31 12:15:39;;;;;;;2.72;1.52;;;;;;;;;;5047983;28;21221;-58
2022/08/31 12:18:30;;;;;;;3.83;1.42;;;;;;;;;;5029880;28;20055;-57
2022/08/31 12:24:40;;;;;;;3.65;1.50;;;;;;;;;;5064577;28;20091;-57
2022/08/31 12:27:31;;;;;;;3.83;1.60;;;;;;;;;;5042426;28;20400;-56
2022/08/31 12:30:25;;;;;;;2.22;1.58;;;;;;;;;;5045372;28;20063;-60
2022/08/31 12:33:15;;;;;;;4.25;1.17;;;;;;;;;;5047037;28;20121;-57
2022/08/31 12:36:11;;;;;;;1.77;1.27;;;;;;;;;;5048013;28;20138;-59
2022/08/31 12:39:08;;;;;;;2.35;1.40;;;;;;;;;;5038097;28;20108;-58
2022/08/31 12:42:03;;;;;;;1.52;1.00;;;;;;;;;;5041878;28;20435;-57
2022/08/31 12:44:49;;;;;;;2.15;1.30;;;;;;;;;;5039063;28;20050;-58
2022/08/31 12:47:53;;;;;;;3.03;1.27;;;;;;;;;;5041437;28;20124;-57
2022/08/31 12:50:52;;;;;;;2.05;1.20;;;;;;;;;;5035740;28;20098;-58
2022/08/31 12:53:39;;;;;;;0.85;0.70;;;;;;;;;;5040093;28;20064;-58
2022/08/31 12:56:29;;;;;;;2.40;1.02;;;;;;;;;;5038199;28;20044;-58
2022/08/31 12:59:14;;;;;;;;;;;;;;;;;;5040309;28;20045;-58
2022/08/31 13:01:59;;;;;;;2.85;1.10;;;;;;;;;;5039675;28;19927;-58
2022/08/31 13:04:44;;;;;;;3.05;1.05;;;;;;;;;;5038879;28;20087;-58
2022/08/31 13:07:31;;;;;;;1.95;1.10;;;;;;;;;;5045721;28;20448;-58
2022/08/31 13:10:23;;;;;;;1.67;1.10;;;;;;;;;;5044163;28;20044;-58
2022/08/31 13:13:08;;;;;;;2.22;1.10;;;;;;;;;;5052737;28;20083;-58
2022/08/31 13:16:03;;;;;;;1.30;0.90;;;;;;;;;;5050870;28;20033;-58
2022/08/31 13:19:02;;;;;;;1.70;1.08;;;;;;;;;;5049028;28;20064;-58
2022/08/31 13:22:06;;;;;;;2.92;1.10;;;;;;;;;;5050379;28;20041;-58
2022/08/31 13:24:51;;;;;;;2.60;0.90;;;;;;;;;;5050408;28;20037;-58
2022/08/31 13:27:38;;;;;;;2.95;1.15;;;;;;;;;;5050255;28;20525;-61
2022/08/31 13:30:24;;;;;;;5.38;1.30;;;;;;;;;;5050702;28;20432;-58
2022/08/31 13:33:41;;;;;;;3.33;0.95;;;;;;;;;;5048212;28;20045;-58
2022/08/31 13:36:31;;;;;;;1.40;0.70;;;;;;;;;;5016376;28;20054;-58
2022/08/31 13:39:23;;;;;;;1.77;1.20;;;;;;;;;;5019567;28;20133;-51
2022/08/31 13:42:20;;;;;;;2.78;1.10;;;;;;;;;;5025665;28;20050;-44
2022/08/31 13:45:07;;;;;;;2.38;1.20;;;;;;;;;;5027147;28;20057;-41
2022/08/31 13:47:56;;;;;;;1.90;1.30;;;;;;;;;;5009109;28;20084;-56
2022/08/31 13:50:54;;;;;;;3.03;1.65;;;;;;;;;;5026013;28;20420;-54
2022/08/31 13:53:44;;;;;;;3.47;1.52;;;;;;;;;;5027664;28;20048;-50
2022/08/31 13:59:36;;;;;;;5.50;1.60;;;;;;;;;;5027855;28;20081;-52
2022/08/31 14:02:23;;;;;;;2.78;1.73;;;;;;;;;;5016018;28;20065;-59
2022/08/31 14:05:08;;;;;;;5.70;2.08;;;;;;;;;;5012711;28;20053;-48
2022/08/31 14:07:55;;;;;;;3.75;1.95;;;;;;;;;;5023165;28;20069;-46
2022/08/31 14:10:42;;;;;;;2.60;1.80;;;;;;;;;;5007819;28;20038;-48
2022/08/31 14:13:31;;;;;;;4.07;2.10;;;;;;;;;;5045283;28;20048;-46
2022/08/31 14:16:28;;;;;;;3.50;2.28;;;;;;;;;;5037358;28;20052;-61
2022/08/31 14:19:28;;;;;;;3.40;2.10;;;;;;;;;;5048611;28;20076;-59
2022/08/31 14:22:15;;;;;;;2.92;2.15;;;;;;;;;;5047097;28;20195;-59
2022/08/31 14:25:01;;;;;;;4.47;2.35;;;;;;;;;;5047938;28;20033;-59
2022/08/31 14:27:45;;;;;;;3.38;2.15;;;;;;;;;;5048623;28;20044;-60
2022/08/31 14:30:34;;;;;;;7.65;2.53;;;;;;;;;;5048801;28;20112;-61
2022/08/31 14:33:19;;;;;;;6.65;2.17;;;;;;;;;;5033267;28;20362;-61
2022/08/31 14:36:12;;;;;;;3.83;2.20;;;;;;;;;;5046545;28;20072;-60
2022/08/31 14:38:57;;;;;;;3.85;2.13;;;;;;;;;;5047880;28;20049;-58
2022/08/31 14:41:44;;;;;;;5.38;2.00;;;;;;;;;;5044404;28;20037;-60
2022/08/31 14:44:30;;;;;;;3.40;2.17;;;;;;;;;;5047251;28;20037;-61
2022/08/31 14:47:14;;;;;;;4.88;2.20;;;;;;;;;;5059573;28;20060;-60
2022/08/31 14:50:05;;;;;;;5.93;2.22;;;;;;;;;;5050022;28;20469;-59
2022/08/31 14:52:59;;;;;;;3.53;2.17;;;;;;;;;;5041304;28;20048;-56
2022/08/31 14:55:44;;;;;;;2.70;2.00;;;;;;;;;;5040189;28;20037;-57
2022/08/31 14:58:28;;;;;;;4.60;2.13;;;;;;;;;;5042658;28;20083;-52
2022/08/31 15:01:13;;;;;;;3.53;2.33;;;;;;;;;;5042531;28;20049;-55
2022/08/31 15:04:02;;;;;;;2.58;1.80;;;;;;;;;;5045086;28;20045;-54
2022/08/31 15:06:55;;;;;;;2.80;1.90;;;;;;;;;;5046158;28;20043;-54
2022/08/31 15:09:41;;;;;;;3.30;1.80;;;;;;;;;;5043205;28;20040;-53
2022/08/31 15:12:27;;;;;;;2.50;1.90;;;;;;;;;;5051822;28;20044;-51
2022/08/31 15:15:17;;;;;;;2.97;1.83;;;;;;;;;;5050823;28;20072;-49
2022/08/31 15:18:03;;;;;;;2.28;1.63;;;;;;;;;;5050756;28;20045;-55
2022/08/31 15:20:48;;;;;;;3.55;1.88;;;;;;;;;;5043244;28;20112;-58
2022/08/31 15:23:33;;;;;;;4.28;1.90;;;;;;;;;;5046269;28;20042;-57
2022/08/31 15:26:20;;;;;;;2.53;1.67;;;;;;;;;;5036495;28;20506;-53
2022/08/31 15:29:05;;;;;;;3.53;1.85;;;;;;;;;;5042283;28;20113;-51
2022/08/31 15:31:51;;;;;;;2.88;1.92;;;;;;;;;;5046417;28;20392;-55
2022/08/31 15:34:37;;;;;;;3.25;2.05;;;;;;;;;;5047537;28;20037;-54
2022/08/31 15:37:22;;;;;;;2.72;1.83;;;;;;;;;;5043776;28;20283;-54
2022/08/31 15:40:08;;;;;;;3.70;1.80;;;;;;;;;;5051143;28;20045;-55
2022/08/31 15:42:53;;;;;;;2.42;1.50;;;;;;;;;;5042711;28;20115;-53
2022/08/31 15:45:37;;;;;;;3.63;1.67;;;;;;;;;;5037924;28;20069;-54
2022/08/31 15:48:40;;;;;;;5.20;2.25;;;;;;;;;;5048006;28;20043;-54
2022/08/31 15:51:26;;;;;;;4.75;1.85;;;;;;;;;;5048219;28;20040;-55
2022/08/31 15:54:12;;;;;;;2.20;1.90;;;;;;;;;;5040643;28;20060;-54
2022/08/31 15:56:57;;;;;;;2.55;1.70;;;;;;;;;;5028829;28;20052;-54
2022/08/31 15:59:42;;;;;;;2.75;1.70;;;;;;;;;;5031716;28;20048;-54
2022/08/31 16:02:26;;;;;;;2.92;1.50;;;;;;;;;;5042518;28;20049;-55
2022/08/31 16:05:12;;;;;;;2.95;1.58;;;;;;;;;;5043300;28;20514;-56
2022/08/31 16:07:56;;;;;;;3.15;1.73;;;;;;;;;;5046018;28;20100;-53
2022/08/31 16:10:45;;;;;;;3.53;1.73;;;;;;;;;;5046475;28;20044;-55
2022/08/31 16:13:30;;;;;;;3.78;1.60;;;;;;;;;;5047301;28;20434;-52
2022/08/31 16:16:19;;;;;;;5.28;1.52;;;;;;;;;;5023721;28;20159;-52
2022/08/31 16:19:04;;;;;;;6.13;2.22;;;;;;;;;;5048665;28;20033;-53
2022/08/31 16:21:49;;;;;;;2.92;1.80;;;;;;;;;;5045424;28;20380;-54
2022/08/31 16:24:35;;;;;;;2.30;1.50;;;;;;;;;;5046896;28;20045;-53
2022/08/31 16:27:20;;;;;;;2.75;1.27;;;;;;;;;;5045248;28;20052;-54
2022/08/31 16:30:06;;;;;;;2.95;1.40;;;;;;;;;;5025416;28;20068;-56
2022/08/31 16:32:51;;;;;;;3.47;1.67;;;;;;;;;;5043327;28;20110;-56
2022/08/31 16:35:35;;;;;;;3.65;1.45;;;;;;;;;;5042313;28;20040;-56
2022/08/31 16:38:20;;;;;;;3.47;1.90;;;;;;;;;;5036367;28;20069;-58
2022/08/31 16:41:05;;;;;;;3.85;2.17;;;;;;;;;;5044996;28;20040;-56
2022/08/31 16:43:50;;;;;;;2.38;1.48;;;;;;;;;;5034206;28;20123;-56
2022/08/31 16:46:34;;;;;;;2.63;1.52;;;;;;;;;;5044432;28;20119;-57
2022/08/31 16:49:40;;;;;;;3.53;1.65;;;;;;;;;;5048464;28;20065;-57
2022/08/31 16:52:27;;;;;;;2.13;1.23;;;;;;;;;;5046170;28;20380;-56
2022/08/31 16:55:15;;;;;;;2.47;1.60;;;;;;;;;;5043503;28;20041;-54
2022/08/31 16:58:00;;;;;;;3.13;1.55;;;;;;;;;;5044151;28;20124;-54
2022/08/31 17:00:46;;;;;;;2.67;1.45;;;;;;;;;;5041520;28;20123;-54
2022/08/31 17:03:30;;;;;;;3.83;1.70;;;;;;;;;;5041921;28;20037;-54
2022/08/31 17:06:15;;;;;;;4.00;1.45;;;;;;;;;;5052624;28;20479;-51
2022/08/31 17:09:03;;;;;;;9.38;1.55;;;;;;;;;;5047056;28;20072;-52
2022/08/31 17:11:50;;;;;;;3.88;1.40;;;;;;;;;;5049846;28;20033;-53
2022/08/31 17:14:42;;;;;;;3.83;1.40;;;;;;;;;;5055924;28;20419;-50
2022/08/31 17:17:26;;;;;;;6.88;1.63;;;;;;;;;;5052715;28;20044;-49